createdAt,value
2022-12-09T00:06:27.752Z,8.36
2022-12-09T00:21:27.040Z,10.12
2022-12-09T00:36:21.825Z,8.61
2022-12-09T00:51:11.361Z,10.32
2022-12-09T01:06:01.303Z,8.91
2022-12-09T01:20:56.065Z,9.03
2022-12-09T01:35:48.256Z,8.11
2022-12-09T01:50:37.858Z,9.97
2022-12-09T02:05:28.501Z,7.03
2022-12-09T02:20:20.048Z,8.02
2022-12-09T02:35:15.541Z,7.27
2022-12-09T02:50:09.190Z,6.46
2022-12-09T03:05:12.715Z,5.84
2022-12-09T03:20:08.356Z,6.48
2022-12-09T03:34:57.934Z,4.32
2022-12-09T03:49:48.713Z,5.61
2022-12-09T04:04:40.089Z,5.98
2022-12-09T04:19:29.616Z,8.16
2022-12-09T04:34:20.736Z,6.22
2022-12-09T04:49:10.124Z,6.70
2022-12-09T05:04:02.251Z,8.29
2022-12-09T05:19:03.416Z,8.79
2022-12-09T05:33:53.279Z,8.61
2022-12-09T05:48:44.147Z,10.34
2022-12-09T06:03:33.153Z,10.36
2022-12-09T06:18:24.430Z,10.48
2022-12-09T06:33:29.451Z,10.09
2022-12-09T06:48:04.144Z,10.64
2022-12-09T07:02:54.778Z,11.33
2022-12-09T07:17:43.916Z,8.28
2022-12-09T07:32:33.860Z,10.77
2022-12-09T07:47:24.018Z,10.19
2022-12-09T08:02:13.022Z,10.66
2022-12-09T08:17:02.714Z,10.78
2022-12-09T08:31:53.050Z,9.99
2022-12-09T08:46:44.400Z,9.10
2022-12-09T09:01:33.962Z,10.61
2022-12-09T09:16:25.756Z,9.28
2022-12-09T09:31:15.306Z,9.94
2022-12-09T09:46:06.331Z,12.00
2022-12-09T10:01:07.500Z,11.44
2022-12-09T10:16:27.261Z,11.53
2022-12-09T10:31:22.782Z,11.01
2022-12-09T10:46:18.735Z,12.39
2022-12-09T11:01:12.599Z,11.80
2022-12-09T11:16:05.296Z,10.89
2022-12-09T11:45:54.836Z,11.94
2022-12-09T12:00:57.015Z,11.92
2022-12-09T12:15:54.122Z,11.47
2022-12-09T12:31:22.260Z,10.88
2022-12-09T12:46:37.840Z,11.31
2022-12-09T13:01:35.182Z,11.37
2022-12-09T13:16:30.396Z,10.87
2022-12-09T13:31:26.210Z,11.52
2022-12-09T13:46:21.878Z,10.91
2022-12-09T14:01:13.503Z,11.61
2022-12-09T14:16:27.647Z,10.81
2022-12-09T14:31:41.805Z,11.32
2022-12-09T15:01:54.859Z,12.80
2022-12-09T15:16:50.702Z,12.17
2022-12-09T15:31:39.149Z,11.89
2022-12-09T15:46:30.059Z,12.17
2022-12-09T16:01:22.446Z,13.59
2022-12-09T16:16:24.862Z,12.87
2022-12-09T16:31:18.051Z,13.02
2022-12-09T16:46:14.540Z,14.04
2022-12-09T17:01:07.624Z,14.63
2022-12-09T17:15:58.925Z,15.38
2022-12-09T17:30:49.789Z,14.99
2022-12-09T17:45:42.402Z,14.68
2022-12-09T18:00:34.151Z,14.53
2022-12-09T18:15:26.307Z,15.48
2022-12-09T18:30:15.969Z,17.06
2022-12-09T18:45:06.919Z,18.28
2022-12-09T18:59:57.520Z,16.93
2022-12-09T19:14:47.476Z,15.37
2022-12-09T19:29:37.781Z,17.20
2022-12-09T19:59:17.895Z,15.98
2022-12-09T20:14:07.904Z,15.87
2022-12-09T20:28:57.711Z,17.07
2022-12-09T20:58:37.651Z,14.71
2022-12-09T21:28:18.249Z,13.42
2022-12-09T21:43:08.690Z,14.19
2022-12-09T21:57:59.439Z,13.38
2022-12-09T22:12:49.161Z,13.32
2022-12-09T22:27:39.372Z,12.72
2022-12-09T22:42:29.360Z,12.93
2022-12-09T22:57:19.502Z,13.07
2022-12-09T23:12:08.862Z,14.20
2022-12-09T23:26:58.997Z,13.34
2022-12-09T23:41:48.318Z,12.63
2022-12-09T23:56:38.285Z,13.80
